sensor_id;sensor_type;location;lat;lon;timestamp;P1;durP1;ratioP1;P2;durP2;ratioP2
51738;SDS011;37815;52.692;6.226;2023-12-04T00:04:27;15.98;;;8.02;;
51738;SDS011;37815;52.692;6.226;2023-12-04T00:09:27;16.23;;;7.97;;
51738;SDS011;37815;52.692;6.226;2023-12-04T00:14:28;15.07;;;8.23;;
51738;SDS011;37815;52.692;6.226;2023-12-04T00:19:28;14.95;;;8.00;;
51738;SDS011;37815;52.692;6.226;2023-12-04T00:24:29;14.82;;;7.88;;
51738;SDS011;37815;52.692;6.226;2023-12-04T00:29:29;16.08;;;8.50;;
51738;SDS011;37815;52.692;6.226;2023-12-04T00:34:30;15.75;;;8.13;;
51738;SDS011;37815;52.692;6.226;2023-12-04T00:39:31;15.45;;;8.18;;
51738;SDS011;37815;52.692;6.226;2023-12-04T00:44:31;16.50;;;8.05;;
51738;SDS011;37815;52.692;6.226;2023-12-04T00:49:32;15.90;;;8.10;;
51738;SDS011;37815;52.692;6.226;2023-12-04T00:54:32;15.10;;;8.23;;
51738;SDS011;37815;52.692;6.226;2023-12-04T00:59:33;15.45;;;7.65;;
51738;SDS011;37815;52.692;6.226;2023-12-04T01:04:33;16.92;;;8.65;;
51738;SDS011;37815;52.692;6.226;2023-12-04T01:09:34;17.50;;;8.55;;
51738;SDS011;37815;52.692;6.226;2023-12-04T01:14:35;16.48;;;8.20;;
51738;SDS011;37815;52.692;6.226;2023-12-04T01:19:38;17.13;;;8.45;;
51738;SDS011;37815;52.692;6.226;2023-12-04T01:24:39;15.80;;;8.23;;
51738;SDS011;37815;52.692;6.226;2023-12-04T01:29:39;14.80;;;8.27;;
51738;SDS011;37815;52.692;6.226;2023-12-04T01:34:40;19.67;;;9.27;;
51738;SDS011;37815;52.692;6.226;2023-12-04T01:39:40;16.55;;;8.63;;
51738;SDS011;37815;52.692;6.226;2023-12-04T01:44:41;16.90;;;8.98;;
51738;SDS011;37815;52.692;6.226;2023-12-04T01:49:41;15.20;;;7.78;;
51738;SDS011;37815;52.692;6.226;2023-12-04T01:54:42;15.27;;;8.15;;
51738;SDS011;37815;52.692;6.226;2023-12-04T01:59:43;15.88;;;8.48;;
51738;SDS011;37815;52.692;6.226;2023-12-04T02:04:45;16.75;;;7.95;;
51738;SDS011;37815;52.692;6.226;2023-12-04T02:09:46;18.25;;;8.60;;
51738;SDS011;37815;52.692;6.226;2023-12-04T02:14:47;16.23;;;8.13;;
51738;SDS011;37815;52.692;6.226;2023-12-04T02:19:47;15.68;;;7.57;;
51738;SDS011;37815;52.692;6.226;2023-12-04T02:24:48;17.88;;;8.85;;
51738;SDS011;37815;52.692;6.226;2023-12-04T02:29:53;16.05;;;7.85;;
51738;SDS011;37815;52.692;6.226;2023-12-04T02:34:58;16.13;;;7.53;;
51738;SDS011;37815;52.692;6.226;2023-12-04T02:40:02;14.88;;;7.82;;
51738;SDS011;37815;52.692;6.226;2023-12-04T02:45:04;16.92;;;8.55;;
51738;SDS011;37815;52.692;6.226;2023-12-04T02:50:05;16.45;;;7.32;;
51738;SDS011;37815;52.692;6.226;2023-12-04T02:55:06;15.57;;;8.15;;
51738;SDS011;37815;52.692;6.226;2023-12-04T03:00:07;14.98;;;7.47;;
51738;SDS011;37815;52.692;6.226;2023-12-04T03:05:08;17.95;;;8.50;;
51738;SDS011;37815;52.692;6.226;2023-12-04T03:10:09;15.05;;;7.47;;
51738;SDS011;37815;52.692;6.226;2023-12-04T03:15:09;16.52;;;7.80;;
51738;SDS011;37815;52.692;6.226;2023-12-04T03:20:11;18.17;;;7.88;;
51738;SDS011;37815;52.692;6.226;2023-12-04T03:25:12;19.23;;;9.32;;
51738;SDS011;37815;52.692;6.226;2023-12-04T03:30:12;16.73;;;7.60;;
51738;SDS011;37815;52.692;6.226;2023-12-04T03:35:13;14.70;;;7.35;;
51738;SDS011;37815;52.692;6.226;2023-12-04T03:40:14;18.00;;;8.32;;
51738;SDS011;37815;52.692;6.226;2023-12-04T03:45:14;16.33;;;8.00;;
51738;SDS011;37815;52.692;6.226;2023-12-04T03:50:15;15.57;;;7.68;;
51738;SDS011;37815;52.692;6.226;2023-12-04T03:55:15;18.27;;;7.50;;
51738;SDS011;37815;52.692;6.226;2023-12-04T04:00:19;15.27;;;7.72;;
51738;SDS011;37815;52.692;6.226;2023-12-04T04:05:20;14.70;;;7.40;;
51738;SDS011;37815;52.692;6.226;2023-12-04T04:10:20;17.27;;;7.53;;
51738;SDS011;37815;52.692;6.226;2023-12-04T04:15:21;14.48;;;7.55;;
51738;SDS011;37815;52.692;6.226;2023-12-04T04:20:21;16.70;;;7.20;;
51738;SDS011;37815;52.692;6.226;2023-12-04T04:25:22;15.35;;;7.05;;
51738;SDS011;37815;52.692;6.226;2023-12-04T04:30:24;17.60;;;8.27;;
51738;SDS011;37815;52.692;6.226;2023-12-04T04:35:24;15.85;;;7.10;;
51738;SDS011;37815;52.692;6.226;2023-12-04T04:40:25;15.38;;;7.72;;
51738;SDS011;37815;52.692;6.226;2023-12-04T04:45:25;16.38;;;7.70;;
51738;SDS011;37815;52.692;6.226;2023-12-04T04:50:26;14.40;;;7.10;;
51738;SDS011;37815;52.692;6.226;2023-12-04T04:55:26;15.30;;;7.90;;
51738;SDS011;37815;52.692;6.226;2023-12-04T05:00:27;12.60;;;6.75;;
51738;SDS011;37815;52.692;6.226;2023-12-04T05:05:27;13.57;;;6.65;;
51738;SDS011;37815;52.692;6.226;2023-12-04T05:10:28;13.82;;;6.82;;
51738;SDS011;37815;52.692;6.226;2023-12-04T05:15:29;12.57;;;6.60;;
51738;SDS011;37815;52.692;6.226;2023-12-04T05:20:29;14.50;;;6.82;;
51738;SDS011;37815;52.692;6.226;2023-12-04T05:25:30;11.57;;;6.07;;
51738;SDS011;37815;52.692;6.226;2023-12-04T05:30:30;13.18;;;6.68;;
51738;SDS011;37815;52.692;6.226;2023-12-04T05:35:31;13.77;;;6.10;;
51738;SDS011;37815;52.692;6.226;2023-12-04T05:40:34;14.68;;;7.03;;
51738;SDS011;37815;52.692;6.226;2023-12-04T05:45:34;13.98;;;6.43;;
51738;SDS011;37815;52.692;6.226;2023-12-04T05:50:35;13.27;;;6.32;;
51738;SDS011;37815;52.692;6.226;2023-12-04T05:55:36;11.88;;;5.35;;
51738;SDS011;37815;52.692;6.226;2023-12-04T06:00:36;13.43;;;6.57;;
51738;SDS011;37815;52.692;6.226;2023-12-04T06:05:37;14.13;;;6.43;;
51738;SDS011;37815;52.692;6.226;2023-12-04T06:10:38;13.68;;;6.25;;
51738;SDS011;37815;52.692;6.226;2023-12-04T06:15:38;13.60;;;6.32;;
51738;SDS011;37815;52.692;6.226;2023-12-04T06:20:39;12.98;;;6.57;;
51738;SDS011;37815;52.692;6.226;2023-12-04T06:25:40;11.88;;;5.95;;
51738;SDS011;37815;52.692;6.226;2023-12-04T06:30:40;13.45;;;5.93;;
51738;SDS011;37815;52.692;6.226;2023-12-04T06:35:41;12.27;;;5.50;;
51738;SDS011;37815;52.692;6.226;2023-12-04T06:40:42;14.43;;;6.15;;
51738;SDS011;37815;52.692;6.226;2023-12-04T06:45:44;13.40;;;6.68;;
51738;SDS011;37815;52.692;6.226;2023-12-04T06:50:45;14.60;;;6.20;;
51738;SDS011;37815;52.692;6.226;2023-12-04T06:55:46;14.13;;;6.72;;
51738;SDS011;37815;52.692;6.226;2023-12-04T07:00:46;13.23;;;5.60;;
51738;SDS011;37815;52.692;6.226;2023-12-04T07:05:48;13.23;;;6.25;;
51738;SDS011;37815;52.692;6.226;2023-12-04T07:10:49;12.00;;;5.80;;
51738;SDS011;37815;52.692;6.226;2023-12-04T07:15:49;14.20;;;5.40;;
51738;SDS011;37815;52.692;6.226;2023-12-04T07:20:51;9.45;;;5.35;;
51738;SDS011;37815;52.692;6.226;2023-12-04T07:25:51;12.93;;;6.03;;
51738;SDS011;37815;52.692;6.226;2023-12-04T07:30:54;12.65;;;6.13;;
51738;SDS011;37815;52.692;6.226;2023-12-04T07:35:55;12.30;;;5.45;;
51738;SDS011;37815;52.692;6.226;2023-12-04T07:40:56;10.90;;;4.90;;
51738;SDS011;37815;52.692;6.226;2023-12-04T07:45:57;9.63;;;4.55;;
51738;SDS011;37815;52.692;6.226;2023-12-04T07:50:57;9.98;;;5.10;;
51738;SDS011;37815;52.692;6.226;2023-12-04T07:56:00;10.27;;;5.10;;
51738;SDS011;37815;52.692;6.226;2023-12-04T08:01:03;11.52;;;4.93;;
51738;SDS011;37815;52.692;6.226;2023-12-04T08:06:04;9.70;;;4.68;;
51738;SDS011;37815;52.692;6.226;2023-12-04T08:11:05;14.05;;;5.50;;
51738;SDS011;37815;52.692;6.226;2023-12-04T08:16:15;10.70;;;5.10;;
51738;SDS011;37815;52.692;6.226;2023-12-04T08:21:15;12.25;;;4.93;;
51738;SDS011;37815;52.692;6.226;2023-12-04T08:26:22;10.45;;;5.40;;
51738;SDS011;37815;52.692;6.226;2023-12-04T08:31:24;10.68;;;4.97;;
51738;SDS011;37815;52.692;6.226;2023-12-04T08:36:24;9.88;;;4.85;;
51738;SDS011;37815;52.692;6.226;2023-12-04T08:41:25;8.65;;;4.22;;
51738;SDS011;37815;52.692;6.226;2023-12-04T08:46:28;10.20;;;4.85;;
51738;SDS011;37815;52.692;6.226;2023-12-04T08:51:28;10.48;;;4.72;;
51738;SDS011;37815;52.692;6.226;2023-12-04T08:56:29;7.78;;;4.03;;
51738;SDS011;37815;52.692;6.226;2023-12-04T09:01:30;8.10;;;4.22;;
51738;SDS011;37815;52.692;6.226;2023-12-04T09:06:30;10.00;;;4.70;;
51738;SDS011;37815;52.692;6.226;2023-12-04T09:11:31;7.78;;;4.18;;
51738;SDS011;37815;52.692;6.226;2023-12-04T09:16:31;10.27;;;4.88;;
51738;SDS011;37815;52.692;6.226;2023-12-04T09:21:32;9.10;;;4.47;;
51738;SDS011;37815;52.692;6.226;2023-12-04T09:26:33;8.25;;;4.25;;
51738;SDS011;37815;52.692;6.226;2023-12-04T09:31:34;7.57;;;3.95;;
51738;SDS011;37815;52.692;6.226;2023-12-04T09:36:35;10.18;;;4.00;;
51738;SDS011;37815;52.692;6.226;2023-12-04T09:41:36;7.18;;;4.07;;
51738;SDS011;37815;52.692;6.226;2023-12-04T09:46:38;8.05;;;4.03;;
51738;SDS011;37815;52.692;6.226;2023-12-04T09:51:39;8.30;;;4.50;;
51738;SDS011;37815;52.692;6.226;2023-12-04T09:56:40;7.05;;;3.88;;
51738;SDS011;37815;52.692;6.226;2023-12-04T10:01:40;7.53;;;4.20;;
51738;SDS011;37815;52.692;6.226;2023-12-04T10:06:43;8.85;;;4.05;;
51738;SDS011;37815;52.692;6.226;2023-12-04T10:11:45;7.97;;;3.97;;
51738;SDS011;37815;52.692;6.226;2023-12-04T10:16:46;8.63;;;3.63;;
51738;SDS011;37815;52.692;6.226;2023-12-04T10:21:49;6.90;;;3.55;;
51738;SDS011;37815;52.692;6.226;2023-12-04T10:26:50;11.20;;;4.72;;
51738;SDS011;37815;52.692;6.226;2023-12-04T10:31:51;9.07;;;3.92;;
51738;SDS011;37815;52.692;6.226;2023-12-04T10:36:54;8.60;;;3.95;;
51738;SDS011;37815;52.692;6.226;2023-12-04T10:41:59;12.85;;;4.07;;
51738;SDS011;37815;52.692;6.226;2023-12-04T10:47:03;6.88;;;3.88;;
51738;SDS011;37815;52.692;6.226;2023-12-04T10:52:04;9.18;;;4.63;;
51738;SDS011;37815;52.692;6.226;2023-12-04T10:57:05;10.77;;;4.32;;
51738;SDS011;37815;52.692;6.226;2023-12-04T11:02:08;11.30;;;4.32;;
51738;SDS011;37815;52.692;6.226;2023-12-04T11:07:16;9.77;;;4.53;;
51738;SDS011;37815;52.692;6.226;2023-12-04T11:12:21;7.20;;;3.97;;
51738;SDS011;37815;52.692;6.226;2023-12-04T11:17:25;10.90;;;4.30;;
51738;SDS011;37815;52.692;6.226;2023-12-04T11:22:28;6.53;;;3.42;;
51738;SDS011;37815;52.692;6.226;2023-12-04T11:27:28;8.02;;;3.60;;
51738;SDS011;37815;52.692;6.226;2023-12-04T11:32:29;8.18;;;4.05;;
51738;SDS011;37815;52.692;6.226;2023-12-04T11:37:30;7.53;;;3.65;;
51738;SDS011;37815;52.692;6.226;2023-12-04T11:42:31;8.43;;;3.83;;
51738;SDS011;37815;52.692;6.226;2023-12-04T11:47:48;7.80;;;3.92;;
51738;SDS011;37815;52.692;6.226;2023-12-04T11:52:59;7.65;;;4.60;;
51738;SDS011;37815;52.692;6.226;2023-12-04T11:58:04;8.00;;;4.45;;
51738;SDS011;37815;52.692;6.226;2023-12-04T12:03:14;7.65;;;3.70;;
51738;SDS011;37815;52.692;6.226;2023-12-04T12:08:15;7.47;;;3.90;;
51738;SDS011;37815;52.692;6.226;2023-12-04T12:13:15;8.68;;;4.28;;
51738;SDS011;37815;52.692;6.226;2023-12-04T12:18:16;6.57;;;3.78;;
51738;SDS011;37815;52.692;6.226;2023-12-04T12:23:17;8.40;;;4.15;;
51738;SDS011;37815;52.692;6.226;2023-12-04T12:28:18;9.10;;;4.32;;
51738;SDS011;37815;52.692;6.226;2023-12-04T12:33:19;6.68;;;3.67;;
51738;SDS011;37815;52.692;6.226;2023-12-04T12:38:21;8.27;;;4.40;;
51738;SDS011;37815;52.692;6.226;2023-12-04T12:43:22;7.97;;;3.65;;
51738;SDS011;37815;52.692;6.226;2023-12-04T12:48:23;7.18;;;3.60;;
51738;SDS011;37815;52.692;6.226;2023-12-04T12:53:27;6.50;;;3.60;;
51738;SDS011;37815;52.692;6.226;2023-12-04T12:58:27;8.27;;;4.15;;
51738;SDS011;37815;52.692;6.226;2023-12-04T13:03:30;7.30;;;3.97;;
51738;SDS011;37815;52.692;6.226;2023-12-04T13:08:31;7.93;;;4.32;;
51738;SDS011;37815;52.692;6.226;2023-12-04T13:13:32;7.95;;;4.15;;
51738;SDS011;37815;52.692;6.226;2023-12-04T13:18:33;7.40;;;3.72;;
51738;SDS011;37815;52.692;6.226;2023-12-04T13:23:35;7.57;;;4.15;;
51738;SDS011;37815;52.692;6.226;2023-12-04T13:28:37;8.88;;;3.70;;
51738;SDS011;37815;52.692;6.226;2023-12-04T13:33:37;7.18;;;3.92;;
51738;SDS011;37815;52.692;6.226;2023-12-04T13:38:38;7.10;;;3.58;;
51738;SDS011;37815;52.692;6.226;2023-12-04T13:43:39;8.02;;;3.42;;
51738;SDS011;37815;52.692;6.226;2023-12-04T13:48:51;9.55;;;4.07;;
51738;SDS011;37815;52.692;6.226;2023-12-04T13:53:52;7.60;;;4.10;;
51738;SDS011;37815;52.692;6.226;2023-12-04T13:59:02;7.90;;;4.20;;
51738;SDS011;37815;52.692;6.226;2023-12-04T14:04:05;9.20;;;4.68;;
51738;SDS011;37815;52.692;6.226;2023-12-04T14:09:05;8.23;;;3.78;;
51738;SDS011;37815;52.692;6.226;2023-12-04T14:14:10;6.78;;;3.75;;
51738;SDS011;37815;52.692;6.226;2023-12-04T14:19:11;8.07;;;3.65;;
51738;SDS011;37815;52.692;6.226;2023-12-04T14:24:12;5.72;;;3.55;;
51738;SDS011;37815;52.692;6.226;2023-12-04T14:29:13;11.52;;;4.05;;
51738;SDS011;37815;52.692;6.226;2023-12-04T14:34:13;7.68;;;3.47;;
51738;SDS011;37815;52.692;6.226;2023-12-04T14:39:14;9.43;;;3.85;;
51738;SDS011;37815;52.692;6.226;2023-12-04T14:44:17;9.13;;;3.88;;
51738;SDS011;37815;52.692;6.226;2023-12-04T14:49:18;6.93;;;3.70;;
51738;SDS011;37815;52.692;6.226;2023-12-04T14:54:18;6.22;;;3.92;;
51738;SDS011;37815;52.692;6.226;2023-12-04T14:59:30;7.47;;;4.00;;
51738;SDS011;37815;52.692;6.226;2023-12-04T15:04:40;6.95;;;3.92;;
51738;SDS011;37815;52.692;6.226;2023-12-04T15:09:40;7.53;;;4.20;;
51738;SDS011;37815;52.692;6.226;2023-12-04T15:14:41;9.52;;;3.65;;
51738;SDS011;37815;52.692;6.226;2023-12-04T15:19:44;8.52;;;4.30;;
51738;SDS011;37815;52.692;6.226;2023-12-04T15:25:08;9.48;;;4.20;;
51738;SDS011;37815;52.692;6.226;2023-12-04T15:30:13;9.20;;;4.00;;
51738;SDS011;37815;52.692;6.226;2023-12-04T15:35:14;7.43;;;3.67;;
51738;SDS011;37815;52.692;6.226;2023-12-04T15:40:15;8.10;;;3.90;;
51738;SDS011;37815;52.692;6.226;2023-12-04T15:45:15;10.70;;;4.40;;
51738;SDS011;37815;52.692;6.226;2023-12-04T15:50:17;7.00;;;3.85;;
51738;SDS011;37815;52.692;6.226;2023-12-04T15:55:17;8.40;;;4.38;;
51738;SDS011;37815;52.692;6.226;2023-12-04T16:00:21;7.97;;;3.92;;
51738;SDS011;37815;52.692;6.226;2023-12-04T16:05:22;8.00;;;4.07;;
51738;SDS011;37815;52.692;6.226;2023-12-04T16:10:23;8.65;;;3.55;;
51738;SDS011;37815;52.692;6.226;2023-12-04T16:15:24;8.38;;;3.95;;
51738;SDS011;37815;52.692;6.226;2023-12-04T16:20:24;7.05;;;4.03;;
51738;SDS011;37815;52.692;6.226;2023-12-04T16:25:25;6.85;;;3.80;;
51738;SDS011;37815;52.692;6.226;2023-12-04T16:30:26;9.43;;;5.20;;
51738;SDS011;37815;52.692;6.226;2023-12-04T16:35:27;9.40;;;4.18;;
51738;SDS011;37815;52.692;6.226;2023-12-04T16:40:28;10.10;;;4.72;;
51738;SDS011;37815;52.692;6.226;2023-12-04T16:45:29;9.52;;;4.68;;
51738;SDS011;37815;52.692;6.226;2023-12-04T16:50:30;14.98;;;5.78;;
51738;SDS011;37815;52.692;6.226;2023-12-04T16:55:32;13.18;;;5.10;;
51738;SDS011;37815;52.692;6.226;2023-12-04T17:00:33;6.78;;;4.20;;
51738;SDS011;37815;52.692;6.226;2023-12-04T17:05:34;10.15;;;4.78;;
51738;SDS011;37815;52.692;6.226;2023-12-04T17:10:34;11.55;;;5.43;;
51738;SDS011;37815;52.692;6.226;2023-12-04T17:15:35;10.23;;;4.95;;
51738;SDS011;37815;52.692;6.226;2023-12-04T17:20:35;10.40;;;4.85;;
51738;SDS011;37815;52.692;6.226;2023-12-04T17:25:37;8.30;;;4.00;;
51738;SDS011;37815;52.692;6.226;2023-12-04T17:30:37;8.45;;;4.20;;
51738;SDS011;37815;52.692;6.226;2023-12-04T17:35:38;10.10;;;4.80;;
51738;SDS011;37815;52.692;6.226;2023-12-04T17:40:40;7.95;;;4.68;;
51738;SDS011;37815;52.692;6.226;2023-12-04T17:45:41;8.02;;;4.45;;
51738;SDS011;37815;52.692;6.226;2023-12-04T17:50:41;11.15;;;5.28;;
51738;SDS011;37815;52.692;6.226;2023-12-04T17:55:42;10.68;;;4.47;;
51738;SDS011;37815;52.692;6.226;2023-12-04T18:00:43;8.02;;;4.57;;
51738;SDS011;37815;52.692;6.226;2023-12-04T18:05:44;11.93;;;4.75;;
51738;SDS011;37815;52.692;6.226;2023-12-04T18:10:44;8.43;;;4.55;;
51738;SDS011;37815;52.692;6.226;2023-12-04T18:20:49;9.18;;;3.78;;
51738;SDS011;37815;52.692;6.226;2023-12-04T18:25:51;8.90;;;4.47;;
51738;SDS011;37815;52.692;6.226;2023-12-04T18:30:52;10.00;;;4.57;;
51738;SDS011;37815;52.692;6.226;2023-12-04T18:35:53;10.05;;;4.35;;
51738;SDS011;37815;52.692;6.226;2023-12-04T18:40:54;7.88;;;4.28;;
51738;SDS011;37815;52.692;6.226;2023-12-04T18:45:55;8.15;;;4.45;;
51738;SDS011;37815;52.692;6.226;2023-12-04T18:50:56;10.93;;;5.18;;
51738;SDS011;37815;52.692;6.226;2023-12-04T18:55:56;9.32;;;4.75;;
51738;SDS011;37815;52.692;6.226;2023-12-04T19:00:57;12.07;;;5.50;;
51738;SDS011;37815;52.692;6.226;2023-12-04T19:05:58;8.35;;;4.57;;
51738;SDS011;37815;52.692;6.226;2023-12-04T19:10:58;6.95;;;4.13;;
51738;SDS011;37815;52.692;6.226;2023-12-04T19:15:59;8.10;;;4.53;;
51738;SDS011;37815;52.692;6.226;2023-12-04T19:20:59;11.15;;;5.47;;
51738;SDS011;37815;52.692;6.226;2023-12-04T19:26:00;10.18;;;4.90;;
51738;SDS011;37815;52.692;6.226;2023-12-04T19:31:00;12.23;;;5.60;;
51738;SDS011;37815;52.692;6.226;2023-12-04T19:36:04;9.70;;;5.20;;
51738;SDS011;37815;52.692;6.226;2023-12-04T19:41:05;9.73;;;4.82;;
51738;SDS011;37815;52.692;6.226;2023-12-04T19:46:07;10.73;;;5.70;;
51738;SDS011;37815;52.692;6.226;2023-12-04T19:51:08;6.82;;;4.47;;
51738;SDS011;37815;52.692;6.226;2023-12-04T19:56:09;10.73;;;5.28;;
51738;SDS011;37815;52.692;6.226;2023-12-04T20:01:10;9.60;;;5.13;;
51738;SDS011;37815;52.692;6.226;2023-12-04T20:06:12;9.55;;;4.93;;
51738;SDS011;37815;52.692;6.226;2023-12-04T20:11:13;9.07;;;4.88;;
51738;SDS011;37815;52.692;6.226;2023-12-04T20:16:14;8.85;;;4.70;;
51738;SDS011;37815;52.692;6.226;2023-12-04T20:21:15;9.07;;;5.07;;
51738;SDS011;37815;52.692;6.226;2023-12-04T20:26:15;10.18;;;5.03;;
51738;SDS011;37815;52.692;6.226;2023-12-04T20:31:16;11.38;;;5.70;;
51738;SDS011;37815;52.692;6.226;2023-12-04T20:36:16;8.80;;;5.47;;
51738;SDS011;37815;52.692;6.226;2023-12-04T20:41:19;12.73;;;5.60;;
51738;SDS011;37815;52.692;6.226;2023-12-04T20:46:20;10.50;;;4.95;;
51738;SDS011;37815;52.692;6.226;2023-12-04T20:51:21;9.07;;;5.47;;
51738;SDS011;37815;52.692;6.226;2023-12-04T20:56:21;8.93;;;5.00;;
51738;SDS011;37815;52.692;6.226;2023-12-04T21:01:22;9.40;;;4.88;;
51738;SDS011;37815;52.692;6.226;2023-12-04T21:06:22;8.82;;;5.50;;
51738;SDS011;37815;52.692;6.226;2023-12-04T21:11:23;8.90;;;5.40;;
51738;SDS011;37815;52.692;6.226;2023-12-04T21:16:25;8.23;;;5.05;;
51738;SDS011;37815;52.692;6.226;2023-12-04T21:21:25;11.07;;;6.32;;
51738;SDS011;37815;52.692;6.226;2023-12-04T21:26:26;10.45;;;5.95;;
51738;SDS011;37815;52.692;6.226;2023-12-04T21:31:27;9.30;;;5.10;;
51738;SDS011;37815;52.692;6.226;2023-12-04T21:36:27;10.85;;;5.88;;
51738;SDS011;37815;52.692;6.226;2023-12-04T21:41:28;10.77;;;5.55;;
51738;SDS011;37815;52.692;6.226;2023-12-04T21:46:29;12.02;;;5.85;;
51738;SDS011;37815;52.692;6.226;2023-12-04T21:51:30;11.50;;;5.55;;
51738;SDS011;37815;52.692;6.226;2023-12-04T21:56:31;10.57;;;5.53;;
51738;SDS011;37815;52.692;6.226;2023-12-04T22:01:31;8.82;;;5.22;;
51738;SDS011;37815;52.692;6.226;2023-12-04T22:06:32;10.25;;;5.78;;
51738;SDS011;37815;52.692;6.226;2023-12-04T22:11:33;12.30;;;6.38;;
51738;SDS011;37815;52.692;6.226;2023-12-04T22:16:33;9.18;;;5.70;;
51738;SDS011;37815;52.692;6.226;2023-12-04T22:21:34;11.93;;;5.97;;
51738;SDS011;37815;52.692;6.226;2023-12-04T22:26:34;10.98;;;5.65;;
51738;SDS011;37815;52.692;6.226;2023-12-04T22:31:35;10.20;;;5.90;;
51738;SDS011;37815;52.692;6.226;2023-12-04T22:36:36;11.02;;;6.07;;
51738;SDS011;37815;52.692;6.226;2023-12-04T22:41:37;10.23;;;6.07;;
51738;SDS011;37815;52.692;6.226;2023-12-04T22:46:38;10.98;;;6.15;;
51738;SDS011;37815;52.692;6.226;2023-12-04T22:51:39;10.68;;;5.45;;
51738;SDS011;37815;52.692;6.226;2023-12-04T22:56:40;12.45;;;6.22;;
51738;SDS011;37815;52.692;6.226;2023-12-04T23:01:41;10.40;;;5.90;;
51738;SDS011;37815;52.692;6.226;2023-12-04T23:06:41;9.10;;;5.32;;
51738;SDS011;37815;52.692;6.226;2023-12-04T23:11:42;11.30;;;5.95;;
51738;SDS011;37815;52.692;6.226;2023-12-04T23:16:42;10.27;;;5.32;;
51738;SDS011;37815;52.692;6.226;2023-12-04T23:21:44;9.75;;;5.35;;
51738;SDS011;37815;52.692;6.226;2023-12-04T23:26:44;10.82;;;5.95;;
51738;SDS011;37815;52.692;6.226;2023-12-04T23:31:47;8.88;;;5.63;;
51738;SDS011;37815;52.692;6.226;2023-12-04T23:36:48;9.93;;;5.30;;
51738;SDS011;37815;52.692;6.226;2023-12-04T23:41:48;11.15;;;5.47;;
51738;SDS011;37815;52.692;6.226;2023-12-04T23:46:49;10.38;;;5.88;;
51738;SDS011;37815;52.692;6.226;2023-12-04T23:51:50;9.57;;;5.60;;
51738;SDS011;37815;52.692;6.226;2023-12-04T23:56:50;9.85;;;5.65;;
